createdAt,value
2022-10-28T00:01:22.068Z,25.00
2022-10-28T00:03:56.177Z,30.77
2022-10-28T00:06:27.880Z,30.87
2022-10-28T00:08:55.101Z,32.40
2022-10-28T00:11:29.832Z,32.63
2022-10-28T00:14:01.010Z,33.10
2022-10-28T00:16:32.241Z,33.70
2022-10-28T00:19:00.934Z,33.30
2022-10-28T00:21:32.295Z,36.10
2022-10-28T00:23:59.925Z,28.10
2022-10-28T00:26:31.353Z,33.57
2022-10-28T00:29:06.272Z,26.00
2022-10-28T00:31:35.234Z,24.13
2022-10-28T00:34:05.217Z,26.97
2022-10-28T00:36:36.870Z,31.67
2022-10-28T00:39:11.686Z,31.63
2022-10-28T00:41:42.660Z,30.10
2022-10-28T00:44:47.483Z,31.03
2022-10-28T00:47:33.509Z,27.33
2022-10-28T00:50:26.648Z,29.97
2022-10-28T00:53:03.307Z,28.57
2022-10-28T00:55:32.077Z,27.00
2022-10-28T00:58:01.352Z,32.07
2022-10-28T01:00:28.532Z,30.87
2022-10-28T01:02:56.629Z,24.80
2022-10-28T01:05:29.155Z,27.20
2022-10-28T01:08:01.889Z,32.43
2022-10-28T01:11:08.084Z,34.63
2022-10-28T01:13:46.959Z,23.80
2022-10-28T01:16:41.598Z,22.53
2022-10-28T01:19:46.225Z,32.60
2022-10-28T01:25:19.770Z,23.13
2022-10-28T01:28:24.249Z,29.00
2022-10-28T01:31:18.564Z,26.90
2022-10-28T01:33:54.895Z,28.73
2022-10-28T01:36:54.807Z,27.23
2022-10-28T01:39:35.037Z,28.60
2022-10-28T01:42:16.566Z,27.07
2022-10-28T01:44:59.168Z,28.50
2022-10-28T01:47:32.342Z,29.40
2022-10-28T01:50:18.648Z,30.80
2022-10-28T01:52:48.511Z,33.73
2022-10-28T01:55:29.275Z,25.93
2022-10-28T01:57:59.563Z,34.40
2022-10-28T02:00:27.269Z,30.50
2022-10-28T02:02:56.578Z,32.13
2022-10-28T02:05:46.642Z,33.47
2022-10-28T02:08:19.735Z,32.27
2022-10-28T02:11:02.997Z,33.53
2022-10-28T02:13:47.878Z,28.43
2022-10-28T02:16:42.424Z,34.10
2022-10-28T02:19:44.126Z,33.03
2022-10-28T02:22:37.759Z,28.43
2022-10-28T02:25:18.769Z,35.80
2022-10-28T02:28:06.411Z,30.90
2022-10-28T02:30:49.628Z,32.17
2022-10-28T02:33:25.236Z,36.90
2022-10-28T02:36:04.035Z,29.43
2022-10-28T02:38:46.664Z,31.47
2022-10-28T02:41:21.359Z,36.60
2022-10-28T02:43:57.744Z,29.47
2022-10-28T02:46:27.238Z,33.60
2022-10-28T02:49:06.830Z,29.03
2022-10-28T02:51:58.310Z,33.77
2022-10-28T02:54:40.303Z,34.53
2022-10-28T02:57:17.870Z,36.33
2022-10-28T02:59:57.211Z,28.30
2022-10-28T03:02:25.349Z,30.80
2022-10-28T03:04:52.587Z,31.30
2022-10-28T03:07:20.148Z,28.20
2022-10-28T03:09:47.269Z,29.57
2022-10-28T03:12:14.454Z,36.00
2022-10-28T03:14:42.461Z,29.23
2022-10-28T03:17:09.538Z,30.80
2022-10-28T03:19:36.651Z,35.53
2022-10-28T03:22:03.879Z,31.23
2022-10-28T03:24:30.957Z,34.50
2022-10-28T03:26:58.080Z,31.73
2022-10-28T03:29:25.159Z,32.60
2022-10-28T03:31:52.213Z,28.90
2022-10-28T03:34:19.263Z,38.70
2022-10-28T03:36:46.324Z,35.23
2022-10-28T03:39:14.997Z,32.83
2022-10-28T03:41:42.062Z,40.53
2022-10-28T03:44:09.059Z,44.20
2022-10-28T03:46:36.346Z,41.63
2022-10-28T03:49:04.352Z,36.77
2022-10-28T03:51:31.514Z,45.73
2022-10-28T03:53:58.599Z,36.73
2022-10-28T03:56:25.743Z,40.60
2022-10-28T04:01:25.087Z,38.73
2022-10-28T04:03:52.473Z,52.87
2022-10-28T04:06:19.514Z,42.10
2022-10-28T04:08:46.584Z,40.00
2022-10-28T04:11:13.599Z,40.63
2022-10-28T04:13:40.668Z,39.77
2022-10-28T04:16:07.908Z,37.57
2022-10-28T04:18:35.627Z,37.80
2022-10-28T04:21:03.581Z,44.83
2022-10-28T04:23:30.715Z,47.07
2022-10-28T04:25:57.896Z,43.73
2022-10-28T04:28:24.889Z,52.70
2022-10-28T04:30:52.376Z,51.37
2022-10-28T04:33:19.468Z,43.13
2022-10-28T04:35:46.500Z,44.80
2022-10-28T04:38:14.315Z,51.07
2022-10-28T04:40:41.800Z,43.40
2022-10-28T04:43:10.198Z,49.77
2022-10-28T04:45:38.485Z,45.40
2022-10-28T04:48:05.678Z,45.30
2022-10-28T04:50:32.897Z,50.80
2022-10-28T04:53:00.446Z,46.73
2022-10-28T04:55:27.652Z,51.70
2022-10-28T04:58:00.420Z,49.97
2022-10-28T05:00:29.294Z,48.13
2022-10-28T05:02:57.246Z,45.90
2022-10-28T05:05:24.607Z,48.37
2022-10-28T05:07:52.007Z,51.70
2022-10-28T05:10:19.301Z,45.80
2022-10-28T05:12:46.567Z,45.10
2022-10-28T05:15:15.435Z,51.60
2022-10-28T05:17:47.360Z,51.37
2022-10-28T05:20:17.524Z,53.73
2022-10-28T05:22:53.901Z,48.20
2022-10-28T05:25:22.733Z,44.87
2022-10-28T05:27:50.249Z,51.10
2022-10-28T05:30:18.344Z,52.50
2022-10-28T05:32:47.402Z,51.67
2022-10-28T05:35:16.423Z,43.23
2022-10-28T05:37:44.046Z,47.23
2022-10-28T05:40:12.242Z,47.50
2022-10-28T05:42:43.431Z,50.40
2022-10-28T05:45:12.255Z,54.70
2022-10-28T05:47:46.959Z,51.43
2022-10-28T05:50:16.561Z,48.83
2022-10-28T05:52:53.009Z,48.43
2022-10-28T05:55:22.364Z,53.73
2022-10-28T05:57:52.130Z,53.20
2022-10-28T06:00:22.477Z,52.33
2022-10-28T06:02:49.607Z,53.47
2022-10-28T06:05:17.177Z,46.90
2022-10-28T06:07:44.296Z,48.67
2022-10-28T06:10:11.994Z,54.13
2022-10-28T06:12:37.995Z,51.83
2022-10-28T06:15:05.940Z,49.90
2022-10-28T06:17:32.961Z,62.33
2022-10-28T06:20:00.046Z,47.43
2022-10-28T06:22:27.121Z,44.50
2022-10-28T06:24:54.127Z,44.30
2022-10-28T06:27:21.139Z,50.20
2022-10-28T06:29:48.125Z,44.70
2022-10-28T06:32:15.396Z,44.27
2022-10-28T06:34:42.393Z,56.70
2022-10-28T06:37:09.520Z,43.20
2022-10-28T06:39:39.329Z,42.60
2022-10-28T06:42:06.398Z,43.67
2022-10-28T06:44:33.651Z,38.03
2022-10-28T06:47:02.349Z,41.50
2022-10-28T06:49:29.492Z,35.43
2022-10-28T06:51:56.501Z,33.30
2022-10-28T06:54:23.634Z,35.00
2022-10-28T06:56:50.965Z,35.77
2022-10-28T06:59:18.178Z,37.73
2022-10-28T07:01:45.438Z,31.67
2022-10-28T07:04:13.566Z,35.40
2022-10-28T07:06:41.389Z,32.97
2022-10-28T07:09:10.963Z,30.97
2022-10-28T07:11:38.001Z,29.13
2022-10-28T07:14:05.001Z,29.77
2022-10-28T07:16:32.347Z,24.07
2022-10-28T07:18:59.621Z,31.20
2022-10-28T07:21:28.598Z,31.67
2022-10-28T07:23:59.057Z,29.00
2022-10-28T07:26:26.385Z,29.13
2022-10-28T07:28:54.463Z,26.30
2022-10-28T07:31:21.639Z,28.93
2022-10-28T07:33:55.334Z,25.03
2022-10-28T07:36:22.539Z,25.60
2022-10-28T07:38:53.406Z,26.40
2022-10-28T07:41:22.357Z,33.60
2022-10-28T07:43:49.526Z,21.73
2022-10-28T07:46:18.253Z,22.20
2022-10-28T07:48:46.116Z,22.63
2022-10-28T07:51:15.414Z,21.50
2022-10-28T07:53:43.364Z,23.70
2022-10-28T07:56:15.047Z,21.70
2022-10-28T07:58:44.172Z,21.23
2022-10-28T08:01:15.026Z,16.17
2022-10-28T08:03:42.305Z,22.80
2022-10-28T08:06:17.451Z,21.97
2022-10-28T08:08:47.489Z,19.10
2022-10-28T08:11:20.588Z,18.17
2022-10-28T08:13:48.087Z,18.50
2022-10-28T08:16:15.303Z,17.10
2022-10-28T08:18:42.480Z,18.70
2022-10-28T08:21:10.963Z,19.53
2022-10-28T08:23:38.439Z,16.63
2022-10-28T08:26:05.956Z,22.47
2022-10-28T08:28:33.297Z,25.77
2022-10-28T08:31:09.455Z,19.53
2022-10-28T08:33:42.642Z,22.00
2022-10-28T08:36:13.419Z,18.27
2022-10-28T08:38:45.523Z,22.10
2022-10-28T08:41:38.206Z,19.57
2022-10-28T08:44:08.457Z,18.73
2022-10-28T08:47:07.786Z,13.83
2022-10-28T08:49:39.489Z,15.80
2022-10-28T08:52:26.630Z,14.53
2022-10-28T08:55:23.566Z,22.57
2022-10-28T08:58:05.003Z,14.93
2022-10-28T09:00:34.152Z,26.83
2022-10-28T09:03:12.875Z,15.80
2022-10-28T09:05:48.008Z,20.00
2022-10-28T09:08:25.659Z,18.10
2022-10-28T09:11:10.959Z,20.43
2022-10-28T09:14:28.880Z,18.23
2022-10-28T09:17:18.321Z,14.10
2022-10-28T09:19:58.539Z,13.80
2022-10-28T09:22:42.135Z,14.60
2022-10-28T09:25:57.346Z,13.83
2022-10-28T09:28:56.274Z,18.60
2022-10-28T09:31:52.965Z,13.90
2022-10-28T09:34:39.843Z,17.57
2022-10-28T09:37:16.441Z,14.80
2022-10-28T09:40:16.031Z,14.03
2022-10-28T09:43:09.427Z,15.80
2022-10-28T09:45:41.871Z,13.83
2022-10-28T09:48:27.478Z,14.40
2022-10-28T09:50:57.420Z,18.47
2022-10-28T09:53:44.402Z,15.00
2022-10-28T09:56:11.703Z,14.10
2022-10-28T09:58:42.332Z,13.70
2022-10-28T10:01:09.479Z,15.10
2022-10-28T10:03:36.533Z,10.60
2022-10-28T10:06:19.917Z,11.63
2022-10-28T10:08:48.228Z,11.10
2022-10-28T10:11:40.409Z,13.30
2022-10-28T10:14:11.974Z,11.70
2022-10-28T10:16:47.108Z,14.60
2022-10-28T10:19:14.292Z,17.13
2022-10-28T10:21:51.480Z,11.57
2022-10-28T10:24:33.033Z,11.13
2022-10-28T10:27:10.472Z,13.20
2022-10-28T10:29:44.685Z,10.47
2022-10-28T10:32:22.557Z,14.13
2022-10-28T10:35:12.980Z,12.77
2022-10-28T10:37:45.740Z,11.90
2022-10-28T10:40:13.148Z,10.07
2022-10-28T10:42:51.618Z,10.57
2022-10-28T10:45:28.112Z,13.87
2022-10-28T10:48:15.923Z,14.60
2022-10-28T10:50:48.988Z,15.50
2022-10-28T10:53:31.082Z,11.70
2022-10-28T10:56:08.622Z,11.37
2022-10-28T10:58:49.676Z,12.63
2022-10-28T11:01:25.554Z,10.40
2022-10-28T11:04:01.326Z,8.20
2022-10-28T11:06:32.100Z,10.60
2022-10-28T11:09:05.630Z,12.83
2022-10-28T11:11:40.727Z,13.10
2022-10-28T11:14:10.837Z,11.23
2022-10-28T11:16:59.476Z,12.53
2022-10-28T11:19:36.462Z,11.43
2022-10-28T11:22:40.145Z,23.23
2022-10-28T11:25:34.334Z,10.00
2022-10-28T11:28:28.661Z,11.40
2022-10-28T11:31:40.051Z,9.43
2022-10-28T11:34:54.655Z,11.63
2022-10-28T11:38:12.725Z,9.47
2022-10-28T11:40:48.320Z,10.23
2022-10-28T11:43:55.037Z,10.60
2022-10-28T11:47:18.454Z,10.43
2022-10-28T11:50:12.803Z,7.90
2022-10-28T11:52:48.680Z,10.53
2022-10-28T11:55:52.472Z,9.37
2022-10-28T11:59:17.952Z,8.80
2022-10-28T12:02:17.408Z,9.87
2022-10-28T12:05:14.058Z,10.30
2022-10-28T12:07:54.265Z,7.17
2022-10-28T12:10:58.089Z,11.17
2022-10-28T12:13:36.688Z,7.70
2022-10-28T12:16:34.785Z,10.93
2022-10-28T12:19:20.457Z,9.87
2022-10-28T12:22:44.729Z,8.77
2022-10-28T12:25:19.611Z,10.20
2022-10-28T12:27:50.491Z,11.73
2022-10-28T12:30:25.523Z,9.63
2022-10-28T12:33:01.695Z,10.97
2022-10-28T12:35:35.368Z,9.80
2022-10-28T12:38:25.662Z,12.37
2022-10-28T12:41:17.406Z,10.40
2022-10-28T12:43:49.069Z,10.20
2022-10-28T12:46:50.608Z,11.60
2022-10-28T12:50:04.128Z,10.60
2022-10-28T12:53:02.301Z,10.53
2022-10-28T12:55:55.778Z,8.57
2022-10-28T12:58:35.736Z,9.97
2022-10-28T13:01:10.715Z,11.60
2022-10-28T13:03:39.487Z,12.33
2022-10-28T13:06:44.168Z,16.07
2022-10-28T13:09:25.183Z,16.90
2022-10-28T13:12:06.082Z,13.70
2022-10-28T13:14:53.236Z,11.93
2022-10-28T13:17:33.249Z,16.30
2022-10-28T13:20:18.732Z,10.90
2022-10-28T13:23:04.717Z,14.37
2022-10-28T13:25:58.809Z,11.93
2022-10-28T13:28:43.438Z,14.80
2022-10-28T13:31:11.270Z,12.80
2022-10-28T13:33:51.010Z,13.80
2022-10-28T13:36:29.752Z,10.00
2022-10-28T13:39:00.999Z,12.50
2022-10-28T13:41:43.348Z,11.87
2022-10-28T13:44:27.834Z,12.50
2022-10-28T13:47:30.269Z,10.13
2022-10-28T13:50:06.942Z,13.07
2022-10-28T13:52:43.046Z,13.63
2022-10-28T13:55:43.163Z,10.07
2022-10-28T13:58:23.017Z,9.67
2022-10-28T14:00:53.285Z,8.97
2022-10-28T14:03:27.992Z,8.90
2022-10-28T14:06:00.046Z,15.83
2022-10-28T14:08:38.794Z,15.00
2022-10-28T14:11:14.122Z,11.37
2022-10-28T14:13:49.148Z,13.97
2022-10-28T14:16:25.478Z,13.60
2022-10-28T14:19:19.228Z,12.20
2022-10-28T14:22:01.552Z,12.23
2022-10-28T14:24:37.293Z,11.83
2022-10-28T14:27:08.005Z,12.80
2022-10-28T14:29:49.700Z,15.40
2022-10-28T14:32:31.789Z,12.90
2022-10-28T14:35:12.866Z,15.83
2022-10-28T14:38:32.365Z,13.40
2022-10-28T14:41:34.818Z,18.50
2022-10-28T14:44:26.822Z,19.37
2022-10-28T14:47:08.868Z,19.60
2022-10-28T14:49:38.693Z,23.83
2022-10-28T14:52:12.747Z,13.93
2022-10-28T14:54:58.249Z,15.03
2022-10-28T14:57:34.264Z,15.53
2022-10-28T15:00:07.920Z,26.00
2022-10-28T15:02:38.077Z,28.10
2022-10-28T15:05:20.525Z,21.27
2022-10-28T15:07:48.645Z,20.87
2022-10-28T15:10:38.292Z,14.70
2022-10-28T15:13:17.008Z,19.30
2022-10-28T15:15:53.678Z,21.40
2022-10-28T15:18:24.661Z,20.23
2022-10-28T15:21:09.589Z,21.53
2022-10-28T15:23:36.600Z,16.40
2022-10-28T15:26:21.689Z,21.50
2022-10-28T15:28:48.823Z,21.67
2022-10-28T15:31:17.495Z,17.07
2022-10-28T15:33:44.594Z,16.70
2022-10-28T15:36:19.623Z,20.93
2022-10-28T15:38:49.212Z,21.00
2022-10-28T15:41:28.373Z,20.17
2022-10-28T15:43:59.295Z,19.17
2022-10-28T15:46:27.588Z,20.80
2022-10-28T15:48:59.839Z,24.70
2022-10-28T15:51:27.776Z,19.67
2022-10-28T15:54:10.798Z,18.60
2022-10-28T15:57:04.335Z,18.77
2022-10-28T15:59:31.468Z,20.77
2022-10-28T16:01:59.405Z,22.93
2022-10-28T16:04:26.568Z,19.83
2022-10-28T16:06:58.004Z,24.27
2022-10-28T16:09:32.709Z,21.50
2022-10-28T16:12:05.896Z,26.60
2022-10-28T16:14:38.324Z,21.63
2022-10-28T16:17:08.411Z,19.70
2022-10-28T16:19:44.364Z,26.57
2022-10-28T16:22:14.266Z,21.57
2022-10-28T16:24:42.381Z,26.73
2022-10-28T16:27:26.855Z,22.10
2022-10-28T16:29:54.116Z,20.50
2022-10-28T16:32:39.356Z,26.53
2022-10-28T16:35:20.531Z,26.73
2022-10-28T16:37:53.733Z,24.33
2022-10-28T16:40:50.579Z,23.30
2022-10-28T16:43:23.550Z,24.83
2022-10-28T16:45:56.265Z,20.17
2022-10-28T16:48:30.796Z,22.33
2022-10-28T16:51:02.808Z,22.70
2022-10-28T16:53:29.873Z,26.30
2022-10-28T16:55:59.200Z,27.57
2022-10-28T16:58:28.399Z,24.47
2022-10-28T17:00:56.526Z,37.83
2022-10-28T17:03:23.572Z,30.07
2022-10-28T17:05:50.701Z,23.60
2022-10-28T17:08:30.779Z,29.67
2022-10-28T17:11:05.186Z,27.03
2022-10-28T17:13:34.040Z,30.90
2022-10-28T17:16:01.012Z,22.53
2022-10-28T17:18:28.048Z,27.60
2022-10-28T17:21:02.716Z,26.23
2022-10-28T17:23:30.187Z,28.30
2022-10-28T17:26:02.734Z,26.13
2022-10-28T17:28:30.034Z,29.77
2022-10-28T17:31:08.372Z,24.50
2022-10-28T17:33:35.644Z,23.93
2022-10-28T17:36:08.650Z,25.37
2022-10-28T17:38:36.377Z,28.87
2022-10-28T17:41:03.399Z,24.67
2022-10-28T17:43:30.440Z,26.67
2022-10-28T17:46:07.745Z,20.20
2022-10-28T17:48:35.164Z,23.90
2022-10-28T17:51:02.235Z,26.80
2022-10-28T17:53:29.309Z,19.47
2022-10-28T17:56:02.378Z,29.83
2022-10-28T17:58:30.070Z,27.20
2022-10-28T18:01:03.895Z,24.50
2022-10-28T18:03:34.116Z,23.20
2022-10-28T18:06:07.655Z,24.63
2022-10-28T18:08:43.165Z,26.57
2022-10-28T18:11:13.669Z,26.87
2022-10-28T18:13:52.877Z,26.00
2022-10-28T18:16:24.409Z,25.47
2022-10-28T18:18:53.349Z,22.93
2022-10-28T18:21:21.277Z,24.50
2022-10-28T18:23:53.033Z,30.97
2022-10-28T18:26:20.544Z,25.87
2022-10-28T18:28:49.035Z,22.30
2022-10-28T18:31:20.485Z,26.27
2022-10-28T18:33:49.156Z,27.33
2022-10-28T18:36:23.210Z,27.47
2022-10-28T18:38:51.303Z,23.43
2022-10-28T18:41:24.485Z,32.73
2022-10-28T18:43:56.281Z,26.70
2022-10-28T18:46:23.628Z,26.67
2022-10-28T18:48:50.702Z,24.30
2022-10-28T18:51:18.010Z,24.50
2022-10-28T18:53:48.038Z,23.33
2022-10-28T18:56:18.796Z,25.13
2022-10-28T18:58:51.491Z,27.30
2022-10-28T19:01:22.880Z,33.63
2022-10-28T19:03:58.868Z,24.37
2022-10-28T19:06:30.688Z,27.23
2022-10-28T19:09:00.906Z,24.57
2022-10-28T19:11:30.451Z,23.60
2022-10-28T19:14:03.023Z,21.67
2022-10-28T19:16:33.580Z,24.90
2022-10-28T19:19:03.095Z,24.77
2022-10-28T19:21:30.339Z,25.50
2022-10-28T19:23:59.962Z,21.73
2022-10-28T19:26:27.934Z,24.00
2022-10-28T19:28:55.168Z,23.13
2022-10-28T19:31:25.521Z,23.03
2022-10-28T19:33:54.058Z,23.63
2022-10-28T19:36:29.901Z,22.73
2022-10-28T19:38:58.220Z,22.93
2022-10-28T19:41:28.095Z,23.23
2022-10-28T19:44:01.318Z,27.73
2022-10-28T19:46:31.714Z,21.93
2022-10-28T19:49:01.669Z,26.17
2022-10-28T19:51:32.583Z,25.53
2022-10-28T19:54:02.802Z,24.10
2022-10-28T19:56:32.844Z,24.70
2022-10-28T19:59:02.588Z,24.97
2022-10-28T20:01:32.867Z,19.43
2022-10-28T20:04:00.404Z,25.47
2022-10-28T20:06:33.372Z,29.37
2022-10-28T20:09:00.901Z,19.97
2022-10-28T20:11:35.299Z,21.60
2022-10-28T20:14:06.298Z,23.90
2022-10-28T20:16:33.555Z,27.13
2022-10-28T20:19:00.787Z,23.17
2022-10-28T20:21:30.742Z,27.73
2022-10-28T20:23:58.309Z,25.23
2022-10-28T20:26:29.392Z,20.30
2022-10-28T20:28:57.949Z,22.80
2022-10-28T20:31:29.069Z,34.43
2022-10-28T20:34:03.821Z,21.73
2022-10-28T20:36:37.094Z,28.57
2022-10-28T20:39:16.761Z,21.83
2022-10-28T20:41:46.012Z,21.67
2022-10-28T20:44:13.412Z,34.10
2022-10-28T20:46:40.707Z,28.50
2022-10-28T20:49:08.984Z,21.40
2022-10-28T20:51:36.853Z,24.60
2022-10-28T20:54:04.218Z,26.93
2022-10-28T20:56:36.479Z,26.30
2022-10-28T20:59:05.358Z,25.80
2022-10-28T21:01:36.629Z,25.83
2022-10-28T21:04:07.189Z,31.90
2022-10-28T21:06:35.791Z,23.43
2022-10-28T21:09:04.999Z,28.10
2022-10-28T21:11:32.195Z,27.73
2022-10-28T21:14:01.720Z,29.10
2022-10-28T21:16:29.852Z,25.23
2022-10-28T21:18:59.108Z,23.90
2022-10-28T21:21:26.823Z,26.73
2022-10-28T21:23:53.840Z,27.23
2022-10-28T21:26:21.413Z,31.53
2022-10-28T21:28:52.870Z,24.43
2022-10-28T21:31:21.565Z,27.60
2022-10-28T21:36:20.037Z,28.00
2022-10-28T21:38:52.634Z,26.10
2022-10-28T21:41:21.788Z,26.80
2022-10-28T21:43:51.660Z,25.50
2022-10-28T21:46:20.929Z,26.20
2022-10-28T21:48:48.168Z,23.77
2022-10-28T21:51:18.276Z,27.93
2022-10-28T21:53:45.962Z,30.83
2022-10-28T21:56:18.579Z,30.20
2022-10-28T21:58:48.562Z,21.90
2022-10-28T22:01:22.832Z,23.77
2022-10-28T22:03:52.275Z,24.07
2022-10-28T22:06:19.383Z,32.40
2022-10-28T22:08:46.923Z,40.70
2022-10-28T22:11:18.049Z,22.90
2022-10-28T22:13:45.320Z,27.63
2022-10-28T22:16:16.158Z,28.73
2022-10-28T22:18:43.947Z,23.93
2022-10-28T22:21:15.136Z,26.20
2022-10-28T22:23:42.472Z,37.70
2022-10-28T22:26:13.999Z,31.43
2022-10-28T22:28:41.547Z,31.60
2022-10-28T22:31:12.589Z,30.20
2022-10-28T22:33:40.053Z,30.83
2022-10-28T22:36:13.956Z,32.77
2022-10-28T22:38:42.995Z,25.07
2022-10-28T22:41:25.794Z,31.07
2022-10-28T22:43:56.446Z,30.23
2022-10-28T22:46:26.536Z,27.53
2022-10-28T22:48:54.187Z,31.50
2022-10-28T22:51:21.852Z,25.23
2022-10-28T22:53:49.640Z,22.57
2022-10-28T22:56:20.691Z,28.27
2022-10-28T22:58:52.822Z,29.20
2022-10-28T23:01:20.653Z,26.87
2022-10-28T23:03:50.841Z,29.47
2022-10-28T23:06:21.529Z,28.07
2022-10-28T23:08:48.882Z,26.93
2022-10-28T23:11:18.125Z,30.03
2022-10-28T23:13:46.105Z,24.67
2022-10-28T23:16:15.614Z,29.63
2022-10-28T23:18:44.522Z,33.00
2022-10-28T23:21:16.723Z,29.50
2022-10-28T23:23:49.741Z,30.40
2022-10-28T23:26:20.250Z,30.00
2022-10-28T23:28:52.755Z,30.03
2022-10-28T23:31:21.136Z,29.80
2022-10-28T23:33:48.280Z,30.03
2022-10-28T23:36:15.882Z,29.73
2022-10-28T23:38:43.310Z,29.33
2022-10-28T23:41:16.073Z,25.67
2022-10-28T23:43:43.462Z,30.73
2022-10-28T23:46:10.855Z,27.50
2022-10-28T23:48:38.030Z,26.53
2022-10-28T23:51:05.300Z,36.37
2022-10-28T23:53:32.353Z,25.63
2022-10-28T23:55:59.398Z,35.23
2022-10-28T23:58:26.858Z,23.03
